createdAt,value
2022-07-29T00:02:33.477Z,2.85
2022-07-29T00:05:34.923Z,3.20
2022-07-29T00:08:36.382Z,3.13
2022-07-29T00:11:38.359Z,3.13
2022-07-29T00:14:39.829Z,3.45
2022-07-29T00:17:41.521Z,3.33
2022-07-29T00:20:42.940Z,3.50
2022-07-29T00:23:44.385Z,3.70
2022-07-29T00:26:45.812Z,3.42
2022-07-29T00:29:47.266Z,3.47
2022-07-29T00:32:48.742Z,3.50
2022-07-29T00:35:50.707Z,3.00
2022-07-29T00:38:52.366Z,3.10
2022-07-29T00:41:53.954Z,3.60
2022-07-29T00:44:55.402Z,3.67
2022-07-29T00:47:57.327Z,3.40
2022-07-29T00:51:00.625Z,3.50
2022-07-29T00:54:03.704Z,3.43
2022-07-29T00:57:09.161Z,3.35
2022-07-29T01:00:14.057Z,3.87
2022-07-29T01:03:15.507Z,3.50
2022-07-29T01:06:18.942Z,3.47
2022-07-29T01:09:34.315Z,3.77
2022-07-29T01:12:45.586Z,3.30
2022-07-29T01:15:57.603Z,3.33
2022-07-29T01:19:13.819Z,3.77
2022-07-29T01:22:29.718Z,3.57
2022-07-29T01:25:46.606Z,3.43
2022-07-29T01:29:16.823Z,3.70
2022-07-29T01:32:28.991Z,3.77
2022-07-29T01:35:42.385Z,3.60
2022-07-29T01:38:47.481Z,3.80
2022-07-29T01:41:59.986Z,3.53
2022-07-29T01:45:04.353Z,3.53
2022-07-29T01:48:12.893Z,3.80
2022-07-29T01:51:25.046Z,3.70
2022-07-29T01:54:39.855Z,3.50
2022-07-29T01:57:44.140Z,3.90
2022-07-29T02:00:47.488Z,3.70
2022-07-29T02:03:50.296Z,3.47
2022-07-29T02:06:54.901Z,3.80
2022-07-29T02:09:59.069Z,3.73
2022-07-29T02:13:02.096Z,4.00
2022-07-29T02:16:07.863Z,3.50
2022-07-29T02:19:11.296Z,3.70
2022-07-29T02:22:14.285Z,3.27
2022-07-29T02:25:17.452Z,3.90
2022-07-29T02:28:20.765Z,4.10
2022-07-29T02:31:26.488Z,3.63
2022-07-29T02:34:29.835Z,4.03
2022-07-29T02:37:32.850Z,3.63
2022-07-29T02:40:37.147Z,3.50
2022-07-29T02:43:41.432Z,3.70
2022-07-29T02:46:48.842Z,3.73
2022-07-29T02:50:03.447Z,4.00
2022-07-29T02:53:13.775Z,4.03
2022-07-29T02:56:19.737Z,3.70
2022-07-29T02:59:25.647Z,3.60
2022-07-29T03:02:28.873Z,3.20
2022-07-29T03:05:33.622Z,3.70
2022-07-29T03:08:36.445Z,3.63
2022-07-29T03:11:46.191Z,4.00
2022-07-29T03:14:51.728Z,3.60
2022-07-29T03:17:53.815Z,3.60
2022-07-29T03:20:55.623Z,3.50
2022-07-29T03:23:57.038Z,3.60
2022-07-29T03:26:59.169Z,3.50
2022-07-29T03:30:00.667Z,3.50
2022-07-29T03:33:02.139Z,3.40
2022-07-29T03:36:03.730Z,3.83
2022-07-29T03:39:06.577Z,3.50
2022-07-29T03:42:11.225Z,3.87
2022-07-29T03:45:18.389Z,3.50
2022-07-29T03:48:22.877Z,3.53
2022-07-29T03:51:33.195Z,3.10
2022-07-29T03:54:35.861Z,3.23
2022-07-29T03:57:38.808Z,3.60
2022-07-29T04:00:41.744Z,3.43
2022-07-29T04:03:43.274Z,3.63
2022-07-29T04:06:48.223Z,3.50
2022-07-29T04:09:49.941Z,3.70
2022-07-29T04:12:51.393Z,3.57
2022-07-29T04:15:52.861Z,3.30
2022-07-29T04:18:54.308Z,3.30
2022-07-29T04:21:55.873Z,3.73
2022-07-29T04:25:03.250Z,3.17
2022-07-29T04:28:06.375Z,3.40
2022-07-29T04:31:07.966Z,3.40
2022-07-29T04:34:10.138Z,3.30
2022-07-29T04:37:11.611Z,3.30
2022-07-29T04:40:13.308Z,3.67
2022-07-29T04:43:16.112Z,3.40
2022-07-29T04:46:17.589Z,3.40
2022-07-29T04:49:19.112Z,3.30
2022-07-29T04:52:20.677Z,3.40
2022-07-29T04:55:22.094Z,3.43
2022-07-29T04:58:24.532Z,3.63
2022-07-29T05:01:25.987Z,3.43
2022-07-29T05:04:27.473Z,3.40
2022-07-29T05:07:28.906Z,3.20
2022-07-29T05:10:30.403Z,3.00
2022-07-29T05:13:45.432Z,3.60
2022-07-29T05:16:49.363Z,3.50
2022-07-29T05:19:52.209Z,3.20
2022-07-29T05:22:53.660Z,3.30
2022-07-29T05:25:55.087Z,3.17
2022-07-29T05:28:57.022Z,3.20
2022-07-29T05:31:58.608Z,3.40
2022-07-29T05:35:00.088Z,3.13
2022-07-29T05:38:01.861Z,3.20
2022-07-29T05:41:04.058Z,3.33
2022-07-29T05:44:05.673Z,3.53
2022-07-29T05:47:07.440Z,3.43
2022-07-29T05:50:09.643Z,3.40
2022-07-29T05:53:18.981Z,3.10
2022-07-29T05:56:21.614Z,3.30
2022-07-29T05:59:27.063Z,3.03
2022-07-29T06:02:32.686Z,3.23
2022-07-29T06:05:34.127Z,3.13
2022-07-29T06:08:37.142Z,3.13
2022-07-29T06:11:38.561Z,3.30
2022-07-29T06:14:40.053Z,3.37
2022-07-29T06:18:00.778Z,3.50
2022-07-29T06:21:09.534Z,3.30
2022-07-29T06:24:15.813Z,3.37
2022-07-29T06:27:17.421Z,3.33
2022-07-29T06:30:18.957Z,3.53
2022-07-29T06:33:20.548Z,2.97
2022-07-29T06:36:22.865Z,3.20
2022-07-29T06:39:26.510Z,3.40
2022-07-29T06:42:27.927Z,3.47
2022-07-29T06:45:29.365Z,3.40
2022-07-29T06:48:31.329Z,3.33
2022-07-29T06:51:32.848Z,3.33
2022-07-29T06:54:34.270Z,3.60
2022-07-29T06:57:35.698Z,3.17
2022-07-29T07:00:37.619Z,3.37
2022-07-29T07:03:39.121Z,3.33
2022-07-29T07:06:40.763Z,3.60
2022-07-29T07:09:42.264Z,3.83
2022-07-29T07:12:43.686Z,3.40
2022-07-29T07:15:46.473Z,3.27
2022-07-29T07:18:47.904Z,3.40
2022-07-29T07:21:49.504Z,3.63
2022-07-29T07:24:51.175Z,3.50
2022-07-29T07:27:52.614Z,3.53
2022-07-29T07:30:54.049Z,4.40
2022-07-29T07:33:55.975Z,4.50
2022-07-29T07:36:57.394Z,4.43
2022-07-29T07:39:59.003Z,4.53
2022-07-29T07:43:00.413Z,4.60
2022-07-29T07:46:01.904Z,5.07
2022-07-29T07:49:03.490Z,5.00
2022-07-29T07:52:05.557Z,4.87
2022-07-29T07:55:08.543Z,4.93
2022-07-29T07:58:10.625Z,4.60
2022-07-29T08:01:12.132Z,5.00
2022-07-29T08:04:13.948Z,4.55
2022-07-29T08:07:15.844Z,5.03
2022-07-29T08:10:38.300Z,5.00
2022-07-29T08:13:40.043Z,4.80
2022-07-29T08:16:42.995Z,4.75
2022-07-29T08:19:44.567Z,5.07
2022-07-29T08:22:47.055Z,4.80
2022-07-29T08:25:50.128Z,5.28
2022-07-29T08:28:52.036Z,4.60
2022-07-29T08:31:53.775Z,4.97
2022-07-29T08:34:55.512Z,4.38
2022-07-29T08:37:57.736Z,4.93
2022-07-29T08:41:01.278Z,4.70
2022-07-29T08:44:02.733Z,4.82
2022-07-29T08:47:04.490Z,4.63
2022-07-29T08:50:07.530Z,5.03
2022-07-29T08:53:12.925Z,4.85
2022-07-29T08:56:15.608Z,4.75
2022-07-29T08:59:20.210Z,4.53
2022-07-29T09:02:23.959Z,4.70
2022-07-29T09:05:27.019Z,3.90
2022-07-29T09:08:29.106Z,4.28
2022-07-29T09:11:32.999Z,4.03
2022-07-29T09:14:35.024Z,4.05
2022-07-29T09:17:47.672Z,4.35
2022-07-29T09:21:12.168Z,4.25
2022-07-29T09:24:14.777Z,4.18
2022-07-29T09:27:26.734Z,4.22
2022-07-29T09:30:31.692Z,4.07
2022-07-29T09:33:40.159Z,4.32
2022-07-29T09:36:47.019Z,4.00
2022-07-29T09:39:48.613Z,4.20
2022-07-29T09:42:50.845Z,4.18
2022-07-29T09:45:52.550Z,4.40
2022-07-29T09:49:14.164Z,4.18
2022-07-29T09:52:15.681Z,4.38
2022-07-29T09:55:18.575Z,3.95
2022-07-29T09:58:23.439Z,4.53
2022-07-29T10:01:31.252Z,3.88
2022-07-29T10:04:50.730Z,4.28
2022-07-29T10:07:54.253Z,3.92
2022-07-29T10:11:17.554Z,4.00
2022-07-29T10:14:19.184Z,4.07
2022-07-29T10:17:21.749Z,4.03
2022-07-29T10:20:24.552Z,4.47
2022-07-29T10:23:27.032Z,4.10
2022-07-29T10:26:31.161Z,4.30
2022-07-29T10:29:33.018Z,4.43
2022-07-29T10:32:53.976Z,4.60
2022-07-29T10:36:11.231Z,4.10
2022-07-29T10:39:44.653Z,4.47
2022-07-29T10:42:47.031Z,4.45
2022-07-29T10:45:55.690Z,4.10
2022-07-29T10:49:15.410Z,4.10
2022-07-29T10:52:17.914Z,4.22
2022-07-29T10:55:39.168Z,4.30
2022-07-29T10:58:41.096Z,4.15
2022-07-29T11:01:46.431Z,4.30
2022-07-29T11:04:51.722Z,4.13
2022-07-29T11:08:20.092Z,4.05
2022-07-29T11:11:32.107Z,4.22
2022-07-29T11:15:01.075Z,3.80
2022-07-29T11:18:02.532Z,4.72
2022-07-29T11:21:04.064Z,4.03
2022-07-29T11:24:29.234Z,4.40
2022-07-29T11:27:40.258Z,4.10
2022-07-29T11:30:52.836Z,4.00
2022-07-29T11:33:56.843Z,3.40
2022-07-29T11:37:18.432Z,3.50
2022-07-29T11:40:22.779Z,4.22
2022-07-29T11:43:52.453Z,3.90
2022-07-29T11:46:54.286Z,3.88
2022-07-29T11:49:58.096Z,3.92
2022-07-29T11:53:08.789Z,4.00
2022-07-29T11:56:16.410Z,4.20
2022-07-29T11:59:20.306Z,4.28
2022-07-29T12:02:38.273Z,4.40
2022-07-29T12:05:48.168Z,4.10
2022-07-29T12:08:50.122Z,4.15
2022-07-29T12:12:01.937Z,4.20
2022-07-29T12:15:18.862Z,3.72
2022-07-29T12:18:24.153Z,4.20
2022-07-29T12:21:26.616Z,3.83
2022-07-29T12:24:43.912Z,4.20
2022-07-29T12:27:46.653Z,4.03
2022-07-29T12:30:52.119Z,4.10
2022-07-29T12:33:54.589Z,4.10
2022-07-29T12:36:56.535Z,4.00
2022-07-29T12:39:58.326Z,4.35
2022-07-29T12:43:18.975Z,4.07
2022-07-29T12:46:20.477Z,3.90
2022-07-29T12:49:23.795Z,4.40
2022-07-29T12:52:35.413Z,4.70
2022-07-29T12:55:46.004Z,4.15
2022-07-29T12:58:51.165Z,3.90
2022-07-29T13:01:53.208Z,3.95
2022-07-29T13:04:59.230Z,3.92
2022-07-29T13:08:21.878Z,3.90
2022-07-29T13:11:30.872Z,3.83
2022-07-29T13:14:36.794Z,4.30
2022-07-29T13:17:43.590Z,3.80
2022-07-29T13:20:50.025Z,4.03
2022-07-29T13:23:51.479Z,3.63
2022-07-29T13:26:52.896Z,3.80
2022-07-29T13:29:57.405Z,4.13
2022-07-29T13:32:58.817Z,3.80
2022-07-29T13:36:00.256Z,4.38
2022-07-29T13:39:03.423Z,3.78
2022-07-29T13:42:09.151Z,4.90
2022-07-29T13:45:12.514Z,4.40
2022-07-29T13:48:13.923Z,4.07
2022-07-29T13:51:15.333Z,4.15
2022-07-29T13:54:16.897Z,4.28
2022-07-29T13:57:18.313Z,4.10
2022-07-29T14:00:20.117Z,3.97
2022-07-29T14:03:21.670Z,4.03
2022-07-29T14:06:23.138Z,4.00
2022-07-29T14:09:24.570Z,4.10
2022-07-29T14:12:25.977Z,3.65
2022-07-29T14:15:27.417Z,3.30
2022-07-29T14:18:28.879Z,3.17
2022-07-29T14:21:30.311Z,3.28
2022-07-29T14:24:33.716Z,3.63
2022-07-29T14:27:38.735Z,3.33
2022-07-29T14:30:40.744Z,3.40
2022-07-29T14:33:42.564Z,3.25
2022-07-29T14:36:47.729Z,3.00
2022-07-29T14:39:49.154Z,3.50
2022-07-29T14:42:50.558Z,3.00
2022-07-29T14:45:52.032Z,2.58
2022-07-29T14:48:53.627Z,2.83
2022-07-29T14:51:55.269Z,3.00
2022-07-29T14:54:56.970Z,2.67
2022-07-29T14:58:08.659Z,2.95
2022-07-29T15:01:12.621Z,2.75
2022-07-29T15:04:14.045Z,2.40
2022-07-29T15:07:16.737Z,2.45
2022-07-29T15:10:18.350Z,2.47
2022-07-29T15:13:20.343Z,3.17
2022-07-29T15:16:21.832Z,2.80
2022-07-29T15:19:23.240Z,2.60
2022-07-29T15:22:24.746Z,2.28
2022-07-29T15:25:28.177Z,2.60
2022-07-29T15:28:29.832Z,2.15
2022-07-29T15:31:31.434Z,2.10
2022-07-29T15:34:32.881Z,1.90
2022-07-29T15:37:48.910Z,2.28
2022-07-29T15:40:51.034Z,2.00
2022-07-29T15:43:52.438Z,2.15
2022-07-29T15:47:08.974Z,1.90
2022-07-29T15:50:15.588Z,1.98
2022-07-29T15:53:17.015Z,2.70
2022-07-29T15:56:19.178Z,2.10
2022-07-29T15:59:22.488Z,2.00
2022-07-29T16:02:24.112Z,1.83
2022-07-29T16:05:25.557Z,2.58
2022-07-29T16:08:27.003Z,2.20
2022-07-29T16:11:28.413Z,1.75
2022-07-29T16:14:29.987Z,2.45
2022-07-29T16:17:31.441Z,1.90
2022-07-29T16:20:32.916Z,1.95
2022-07-29T16:23:34.364Z,1.90
2022-07-29T16:26:36.141Z,1.88
2022-07-29T16:29:37.698Z,1.75
2022-07-29T16:32:39.821Z,2.20
2022-07-29T16:35:41.233Z,1.83
2022-07-29T16:38:47.233Z,1.83
2022-07-29T16:41:49.259Z,1.98
2022-07-29T16:44:50.842Z,1.73
2022-07-29T16:48:00.214Z,1.70
2022-07-29T16:51:02.453Z,1.90
2022-07-29T16:54:04.354Z,1.70
2022-07-29T16:57:06.944Z,1.83
2022-07-29T17:00:08.944Z,1.65
2022-07-29T17:03:10.383Z,1.98
2022-07-29T17:06:14.172Z,1.70
2022-07-29T17:09:15.902Z,1.80
2022-07-29T17:12:17.334Z,2.10
2022-07-29T17:15:19.604Z,1.92
2022-07-29T17:18:21.114Z,2.00
2022-07-29T17:21:23.693Z,1.75
2022-07-29T17:24:25.106Z,1.50
2022-07-29T17:27:26.508Z,1.90
2022-07-29T17:30:28.700Z,1.70
2022-07-29T17:33:30.180Z,1.77
2022-07-29T17:36:32.159Z,1.90
2022-07-29T17:39:35.379Z,1.70
2022-07-29T17:42:36.796Z,1.90
2022-07-29T17:45:49.538Z,1.65
2022-07-29T17:48:52.601Z,1.65
2022-07-29T17:51:58.886Z,1.85
2022-07-29T17:55:02.529Z,2.10
2022-07-29T17:58:04.010Z,1.60
2022-07-29T18:01:05.860Z,1.65
2022-07-29T18:04:08.801Z,1.77
2022-07-29T18:07:11.425Z,1.90
2022-07-29T18:10:12.876Z,1.52
2022-07-29T18:13:14.414Z,1.75
2022-07-29T18:16:15.883Z,1.40
2022-07-29T18:19:17.464Z,1.70
2022-07-29T18:22:19.593Z,1.80
2022-07-29T18:25:21.181Z,1.80
2022-07-29T18:28:22.673Z,1.70
2022-07-29T18:31:25.052Z,1.52
2022-07-29T18:34:26.508Z,1.50
2022-07-29T18:38:01.383Z,2.25
2022-07-29T18:40:50.105Z,2.80
2022-07-29T18:43:51.628Z,2.63
2022-07-29T18:46:53.304Z,3.00
2022-07-29T18:49:55.717Z,2.97
2022-07-29T18:52:58.773Z,2.85
2022-07-29T18:56:01.918Z,3.20
2022-07-29T18:59:03.509Z,2.70
2022-07-29T19:02:05.072Z,2.97
2022-07-29T19:05:08.795Z,3.15
2022-07-29T19:08:10.591Z,2.95
2022-07-29T19:11:12.898Z,3.25
2022-07-29T19:14:14.364Z,2.95
2022-07-29T19:17:15.776Z,2.97
2022-07-29T19:20:17.341Z,3.05
2022-07-29T19:23:19.484Z,3.22
2022-07-29T19:26:21.115Z,3.10
2022-07-29T19:29:24.646Z,2.63
2022-07-29T19:32:26.409Z,2.92
2022-07-29T19:35:28.389Z,2.90
2022-07-29T19:38:29.986Z,2.60
2022-07-29T19:41:32.189Z,2.47
2022-07-29T19:44:33.637Z,2.72
2022-07-29T19:47:35.128Z,3.15
2022-07-29T19:50:36.861Z,3.10
2022-07-29T19:53:38.337Z,2.88
2022-07-29T19:56:42.238Z,2.92
2022-07-29T19:59:44.323Z,2.90
2022-07-29T20:02:46.376Z,2.97
2022-07-29T20:05:50.938Z,2.55
2022-07-29T20:08:55.465Z,2.58
2022-07-29T20:12:00.254Z,2.83
2022-07-29T20:15:01.813Z,2.83
2022-07-29T20:18:03.442Z,2.70
2022-07-29T20:21:05.001Z,2.40
2022-07-29T20:24:07.051Z,2.72
2022-07-29T20:27:13.623Z,2.42
2022-07-29T20:30:15.318Z,2.50
2022-07-29T20:33:19.224Z,2.70
2022-07-29T20:36:20.737Z,2.60
2022-07-29T20:39:22.339Z,2.42
2022-07-29T20:42:23.791Z,2.60
2022-07-29T20:45:25.484Z,2.78
2022-07-29T20:48:26.911Z,2.47
2022-07-29T20:51:28.341Z,2.60
2022-07-29T20:54:29.757Z,2.60
2022-07-29T20:57:39.034Z,2.43
2022-07-29T21:00:41.277Z,2.43
2022-07-29T21:03:42.787Z,2.70
2022-07-29T21:06:44.275Z,2.57
2022-07-29T21:09:45.709Z,2.40
2022-07-29T21:12:47.401Z,2.60
2022-07-29T21:15:50.373Z,2.33
2022-07-29T21:18:52.532Z,2.90
2022-07-29T21:21:53.931Z,2.40
2022-07-29T21:24:55.340Z,2.87
2022-07-29T21:28:15.515Z,2.60
2022-07-29T21:31:16.995Z,2.67
2022-07-29T21:34:18.486Z,3.30
2022-07-29T21:37:20.008Z,2.90
2022-07-29T21:40:21.556Z,2.83
2022-07-29T21:43:23.997Z,2.67
2022-07-29T21:46:25.755Z,2.90
2022-07-29T21:49:27.233Z,2.87
2022-07-29T21:52:28.865Z,2.30
2022-07-29T21:55:30.488Z,2.70
2022-07-29T21:58:34.016Z,2.30
2022-07-29T22:01:39.181Z,2.43
2022-07-29T22:04:41.086Z,2.40
2022-07-29T22:07:56.241Z,2.30
2022-07-29T22:10:58.419Z,2.30
2022-07-29T22:13:59.873Z,2.60
2022-07-29T22:17:01.576Z,2.20
2022-07-29T22:20:04.950Z,2.37
2022-07-29T22:23:06.380Z,2.20
2022-07-29T22:26:07.941Z,2.20
2022-07-29T22:29:09.352Z,2.47
2022-07-29T22:32:10.793Z,2.23
2022-07-29T22:35:12.245Z,2.30
2022-07-29T22:38:14.012Z,2.23
2022-07-29T22:41:15.635Z,2.60
2022-07-29T22:44:17.311Z,2.50
2022-07-29T22:47:18.769Z,2.90
2022-07-29T22:50:40.303Z,2.60
2022-07-29T22:53:41.716Z,3.00
2022-07-29T22:56:43.342Z,2.80
2022-07-29T22:59:44.768Z,3.70
2022-07-29T23:02:47.570Z,2.80
2022-07-29T23:05:51.445Z,2.40
2022-07-29T23:08:52.900Z,2.80
2022-07-29T23:11:54.307Z,2.90
2022-07-29T23:14:55.709Z,2.90
2022-07-29T23:17:57.184Z,3.00
2022-07-29T23:20:58.640Z,2.77
2022-07-29T23:24:00.049Z,2.90
2022-07-29T23:27:01.797Z,3.37
2022-07-29T23:30:04.349Z,3.53
2022-07-29T23:33:05.790Z,3.73
2022-07-29T23:36:07.313Z,3.87
2022-07-29T23:39:13.056Z,3.90
2022-07-29T23:42:14.578Z,3.80
2022-07-29T23:45:16.238Z,4.00
2022-07-29T23:48:17.812Z,3.97
2022-07-29T23:51:19.807Z,4.37
2022-07-29T23:54:21.855Z,4.20
2022-07-29T23:57:24.319Z,4.77
